sensor_id;sensor_type;location;lat;lon;timestamp;P1;durP1;ratioP1;P2;durP2;ratioP2
7383;SDS011;3733;47.994;8.820;2023-04-30T00:00:28;10.60;;;6.23;;
7383;SDS011;3733;47.994;8.820;2023-04-30T00:02:54;8.97;;;6.17;;
7383;SDS011;3733;47.994;8.820;2023-04-30T00:05:19;11.17;;;7.40;;
7383;SDS011;3733;47.994;8.820;2023-04-30T00:07:45;9.70;;;6.10;;
7383;SDS011;3733;47.994;8.820;2023-04-30T00:10:11;10.47;;;6.80;;
7383;SDS011;3733;47.994;8.820;2023-04-30T00:12:36;10.43;;;6.67;;
7383;SDS011;3733;47.994;8.820;2023-04-30T00:15:03;10.13;;;6.47;;
7383;SDS011;3733;47.994;8.820;2023-04-30T00:17:28;9.57;;;6.80;;
7383;SDS011;3733;47.994;8.820;2023-04-30T00:19:54;8.97;;;6.43;;
7383;SDS011;3733;47.994;8.820;2023-04-30T00:22:20;11.30;;;6.90;;
7383;SDS011;3733;47.994;8.820;2023-04-30T00:24:46;15.10;;;6.57;;
7383;SDS011;3733;47.994;8.820;2023-04-30T00:27:11;9.10;;;6.63;;
7383;SDS011;3733;47.994;8.820;2023-04-30T00:29:37;10.43;;;6.77;;
7383;SDS011;3733;47.994;8.820;2023-04-30T00:32:02;11.90;;;6.70;;
7383;SDS011;3733;47.994;8.820;2023-04-30T00:34:28;11.00;;;7.47;;
7383;SDS011;3733;47.994;8.820;2023-04-30T00:36:54;11.50;;;6.93;;
7383;SDS011;3733;47.994;8.820;2023-04-30T00:39:20;11.40;;;7.50;;
7383;SDS011;3733;47.994;8.820;2023-04-30T00:41:45;11.80;;;6.83;;
7383;SDS011;3733;47.994;8.820;2023-04-30T00:44:11;13.23;;;7.50;;
7383;SDS011;3733;47.994;8.820;2023-04-30T00:46:36;9.60;;;7.00;;
7383;SDS011;3733;47.994;8.820;2023-04-30T00:49:02;16.27;;;7.17;;
7383;SDS011;3733;47.994;8.820;2023-04-30T00:51:30;10.77;;;6.20;;
7383;SDS011;3733;47.994;8.820;2023-04-30T00:53:57;9.67;;;6.67;;
7383;SDS011;3733;47.994;8.820;2023-04-30T00:56:25;9.50;;;6.60;;
7383;SDS011;3733;47.994;8.820;2023-04-30T00:58:51;10.10;;;6.63;;
7383;SDS011;3733;47.994;8.820;2023-04-30T01:01:21;10.57;;;6.30;;
7383;SDS011;3733;47.994;8.820;2023-04-30T01:03:52;9.77;;;6.70;;
7383;SDS011;3733;47.994;8.820;2023-04-30T01:06:17;8.93;;;5.60;;
7383;SDS011;3733;47.994;8.820;2023-04-30T01:08:43;11.53;;;6.33;;
7383;SDS011;3733;47.994;8.820;2023-04-30T01:11:32;12.07;;;7.17;;
7383;SDS011;3733;47.994;8.820;2023-04-30T01:14:30;10.47;;;5.97;;
7383;SDS011;3733;47.994;8.820;2023-04-30T01:17:05;9.00;;;5.83;;
7383;SDS011;3733;47.994;8.820;2023-04-30T01:22:09;12.60;;;6.90;;
7383;SDS011;3733;47.994;8.820;2023-04-30T01:30:23;11.77;;;6.87;;
7383;SDS011;3733;47.994;8.820;2023-04-30T01:32:49;11.60;;;8.07;;
7383;SDS011;3733;47.994;8.820;2023-04-30T01:35:15;9.10;;;6.47;;
7383;SDS011;3733;47.994;8.820;2023-04-30T01:37:50;11.57;;;7.13;;
7383;SDS011;3733;47.994;8.820;2023-04-30T01:40:28;10.00;;;6.80;;
7383;SDS011;3733;47.994;8.820;2023-04-30T01:43:22;10.10;;;6.73;;
7383;SDS011;3733;47.994;8.820;2023-04-30T01:48:39;8.90;;;6.33;;
7383;SDS011;3733;47.994;8.820;2023-04-30T01:51:19;9.50;;;6.50;;
7383;SDS011;3733;47.994;8.820;2023-04-30T01:53:46;10.23;;;6.70;;
7383;SDS011;3733;47.994;8.820;2023-04-30T01:56:31;12.67;;;6.93;;
7383;SDS011;3733;47.994;8.820;2023-04-30T01:59:02;9.20;;;5.80;;
7383;SDS011;3733;47.994;8.820;2023-04-30T02:01:30;13.63;;;7.00;;
7383;SDS011;3733;47.994;8.820;2023-04-30T02:03:56;8.77;;;5.80;;
7383;SDS011;3733;47.994;8.820;2023-04-30T02:06:22;9.33;;;6.17;;
7383;SDS011;3733;47.994;8.820;2023-04-30T02:08:52;9.70;;;6.30;;
7383;SDS011;3733;47.994;8.820;2023-04-30T02:11:20;17.73;;;7.40;;
7383;SDS011;3733;47.994;8.820;2023-04-30T02:13:48;11.20;;;6.30;;
7383;SDS011;3733;47.994;8.820;2023-04-30T02:16:14;10.30;;;6.47;;
7383;SDS011;3733;47.994;8.820;2023-04-30T02:18:39;12.27;;;7.77;;
7383;SDS011;3733;47.994;8.820;2023-04-30T02:21:06;10.43;;;6.60;;
7383;SDS011;3733;47.994;8.820;2023-04-30T02:23:32;8.23;;;6.20;;
7383;SDS011;3733;47.994;8.820;2023-04-30T02:25:57;10.20;;;6.80;;
7383;SDS011;3733;47.994;8.820;2023-04-30T02:28:23;8.20;;;5.93;;
7383;SDS011;3733;47.994;8.820;2023-04-30T02:30:48;10.70;;;7.13;;
7383;SDS011;3733;47.994;8.820;2023-04-30T02:33:14;11.10;;;7.37;;
7383;SDS011;3733;47.994;8.820;2023-04-30T02:35:40;9.47;;;6.80;;
7383;SDS011;3733;47.994;8.820;2023-04-30T02:38:06;10.50;;;6.77;;
7383;SDS011;3733;47.994;8.820;2023-04-30T02:40:32;9.20;;;6.60;;
7383;SDS011;3733;47.994;8.820;2023-04-30T02:42:57;10.40;;;6.50;;
7383;SDS011;3733;47.994;8.820;2023-04-30T02:45:25;11.83;;;6.30;;
7383;SDS011;3733;47.994;8.820;2023-04-30T02:47:50;9.30;;;6.50;;
7383;SDS011;3733;47.994;8.820;2023-04-30T02:50:16;10.13;;;6.20;;
7383;SDS011;3733;47.994;8.820;2023-04-30T02:52:43;10.67;;;7.00;;
7383;SDS011;3733;47.994;8.820;2023-04-30T02:55:10;9.33;;;6.27;;
7383;SDS011;3733;47.994;8.820;2023-04-30T02:57:35;11.50;;;7.27;;
7383;SDS011;3733;47.994;8.820;2023-04-30T03:00:01;11.90;;;7.20;;
7383;SDS011;3733;47.994;8.820;2023-04-30T03:02:27;9.97;;;6.27;;
7383;SDS011;3733;47.994;8.820;2023-04-30T03:04:53;9.40;;;6.53;;
7383;SDS011;3733;47.994;8.820;2023-04-30T03:07:18;10.37;;;6.33;;
7383;SDS011;3733;47.994;8.820;2023-04-30T03:09:44;10.00;;;6.23;;
7383;SDS011;3733;47.994;8.820;2023-04-30T03:12:10;13.93;;;6.30;;
7383;SDS011;3733;47.994;8.820;2023-04-30T03:14:36;8.57;;;6.43;;
7383;SDS011;3733;47.994;8.820;2023-04-30T03:17:01;9.33;;;6.73;;
7383;SDS011;3733;47.994;8.820;2023-04-30T03:19:27;11.63;;;7.27;;
7383;SDS011;3733;47.994;8.820;2023-04-30T03:21:53;8.77;;;6.47;;
7383;SDS011;3733;47.994;8.820;2023-04-30T03:24:19;9.40;;;7.00;;
7383;SDS011;3733;47.994;8.820;2023-04-30T03:26:45;9.20;;;6.47;;
7383;SDS011;3733;47.994;8.820;2023-04-30T03:29:10;8.70;;;7.17;;
7383;SDS011;3733;47.994;8.820;2023-04-30T03:31:36;10.70;;;6.97;;
7383;SDS011;3733;47.994;8.820;2023-04-30T03:34:02;11.90;;;6.90;;
7383;SDS011;3733;47.994;8.820;2023-04-30T03:36:27;9.40;;;6.13;;
7383;SDS011;3733;47.994;8.820;2023-04-30T03:38:53;9.53;;;6.53;;
7383;SDS011;3733;47.994;8.820;2023-04-30T03:41:18;10.37;;;7.30;;
7383;SDS011;3733;47.994;8.820;2023-04-30T03:43:44;11.40;;;6.40;;
7383;SDS011;3733;47.994;8.820;2023-04-30T03:46:10;10.30;;;6.63;;
7383;SDS011;3733;47.994;8.820;2023-04-30T03:48:35;8.63;;;6.37;;
7383;SDS011;3733;47.994;8.820;2023-04-30T03:51:01;16.20;;;7.00;;
7383;SDS011;3733;47.994;8.820;2023-04-30T03:53:27;8.73;;;6.13;;
7383;SDS011;3733;47.994;8.820;2023-04-30T03:55:53;10.13;;;6.87;;
7383;SDS011;3733;47.994;8.820;2023-04-30T03:58:19;8.10;;;6.00;;
7383;SDS011;3733;47.994;8.820;2023-04-30T04:00:45;8.30;;;6.43;;
7383;SDS011;3733;47.994;8.820;2023-04-30T04:03:12;7.33;;;5.80;;
7383;SDS011;3733;47.994;8.820;2023-04-30T04:05:38;8.50;;;5.80;;
7383;SDS011;3733;47.994;8.820;2023-04-30T04:08:04;9.80;;;5.80;;
7383;SDS011;3733;47.994;8.820;2023-04-30T04:10:30;8.67;;;6.27;;
7383;SDS011;3733;47.994;8.820;2023-04-30T04:12:56;9.83;;;5.77;;
7383;SDS011;3733;47.994;8.820;2023-04-30T04:15:22;11.70;;;6.70;;
7383;SDS011;3733;47.994;8.820;2023-04-30T04:17:47;7.97;;;6.33;;
7383;SDS011;3733;47.994;8.820;2023-04-30T04:20:13;9.10;;;5.83;;
7383;SDS011;3733;47.994;8.820;2023-04-30T04:22:39;9.67;;;6.23;;
7383;SDS011;3733;47.994;8.820;2023-04-30T04:25:05;9.43;;;6.63;;
7383;SDS011;3733;47.994;8.820;2023-04-30T04:27:31;10.93;;;6.13;;
7383;SDS011;3733;47.994;8.820;2023-04-30T04:29:57;9.97;;;6.40;;
7383;SDS011;3733;47.994;8.820;2023-04-30T04:32:22;8.50;;;6.00;;
7383;SDS011;3733;47.994;8.820;2023-04-30T04:34:48;12.77;;;6.57;;
7383;SDS011;3733;47.994;8.820;2023-04-30T04:37:14;10.70;;;7.30;;
7383;SDS011;3733;47.994;8.820;2023-04-30T04:39:41;9.07;;;6.40;;
7383;SDS011;3733;47.994;8.820;2023-04-30T04:42:07;11.13;;;6.43;;
7383;SDS011;3733;47.994;8.820;2023-04-30T04:44:33;9.73;;;6.57;;
7383;SDS011;3733;47.994;8.820;2023-04-30T04:47:00;10.20;;;6.83;;
7383;SDS011;3733;47.994;8.820;2023-04-30T04:49:27;11.33;;;6.70;;
7383;SDS011;3733;47.994;8.820;2023-04-30T04:51:52;10.93;;;6.70;;
7383;SDS011;3733;47.994;8.820;2023-04-30T04:54:18;9.93;;;6.87;;
7383;SDS011;3733;47.994;8.820;2023-04-30T04:56:43;8.33;;;6.40;;
7383;SDS011;3733;47.994;8.820;2023-04-30T04:59:09;8.57;;;6.60;;
7383;SDS011;3733;47.994;8.820;2023-04-30T05:01:35;9.10;;;7.10;;
7383;SDS011;3733;47.994;8.820;2023-04-30T05:04:00;12.33;;;7.90;;
7383;SDS011;3733;47.994;8.820;2023-04-30T05:06:26;9.60;;;7.07;;
7383;SDS011;3733;47.994;8.820;2023-04-30T05:08:52;9.53;;;7.20;;
7383;SDS011;3733;47.994;8.820;2023-04-30T05:11:18;11.00;;;7.20;;
7383;SDS011;3733;47.994;8.820;2023-04-30T05:13:46;11.10;;;7.70;;
7383;SDS011;3733;47.994;8.820;2023-04-30T05:16:11;9.43;;;7.33;;
7383;SDS011;3733;47.994;8.820;2023-04-30T05:18:37;9.63;;;7.10;;
7383;SDS011;3733;47.994;8.820;2023-04-30T05:21:03;8.80;;;6.90;;
7383;SDS011;3733;47.994;8.820;2023-04-30T05:23:28;12.90;;;7.27;;
7383;SDS011;3733;47.994;8.820;2023-04-30T05:25:54;8.10;;;7.00;;
7383;SDS011;3733;47.994;8.820;2023-04-30T05:28:21;12.60;;;7.17;;
7383;SDS011;3733;47.994;8.820;2023-04-30T05:30:46;9.60;;;7.00;;
7383;SDS011;3733;47.994;8.820;2023-04-30T05:33:12;10.57;;;7.40;;
7383;SDS011;3733;47.994;8.820;2023-04-30T05:35:37;13.43;;;8.37;;
7383;SDS011;3733;47.994;8.820;2023-04-30T05:38:03;12.17;;;8.53;;
7383;SDS011;3733;47.994;8.820;2023-04-30T05:40:28;10.50;;;7.73;;
7383;SDS011;3733;47.994;8.820;2023-04-30T05:42:54;12.00;;;8.60;;
7383;SDS011;3733;47.994;8.820;2023-04-30T05:45:20;9.90;;;7.40;;
7383;SDS011;3733;47.994;8.820;2023-04-30T05:47:46;11.30;;;8.00;;
7383;SDS011;3733;47.994;8.820;2023-04-30T05:50:11;10.77;;;8.23;;
7383;SDS011;3733;47.994;8.820;2023-04-30T05:52:37;11.77;;;8.13;;
7383;SDS011;3733;47.994;8.820;2023-04-30T05:55:03;12.40;;;8.50;;
7383;SDS011;3733;47.994;8.820;2023-04-30T05:57:29;12.00;;;8.80;;
7383;SDS011;3733;47.994;8.820;2023-04-30T05:59:54;13.83;;;8.60;;
7383;SDS011;3733;47.994;8.820;2023-04-30T06:02:20;10.60;;;8.50;;
7383;SDS011;3733;47.994;8.820;2023-04-30T06:04:46;11.93;;;8.50;;
7383;SDS011;3733;47.994;8.820;2023-04-30T06:07:11;10.70;;;7.60;;
7383;SDS011;3733;47.994;8.820;2023-04-30T06:09:37;11.47;;;7.80;;
7383;SDS011;3733;47.994;8.820;2023-04-30T06:12:03;10.37;;;8.00;;
7383;SDS011;3733;47.994;8.820;2023-04-30T06:14:29;14.20;;;8.30;;
7383;SDS011;3733;47.994;8.820;2023-04-30T06:16:55;11.60;;;8.27;;
7383;SDS011;3733;47.994;8.820;2023-04-30T06:19:20;11.33;;;8.50;;
7383;SDS011;3733;47.994;8.820;2023-04-30T06:21:46;19.93;;;7.77;;
7383;SDS011;3733;47.994;8.820;2023-04-30T06:24:11;11.40;;;8.47;;
7383;SDS011;3733;47.994;8.820;2023-04-30T06:26:37;10.93;;;7.77;;
7383;SDS011;3733;47.994;8.820;2023-04-30T06:29:03;13.57;;;8.60;;
7383;SDS011;3733;47.994;8.820;2023-04-30T06:31:29;16.67;;;7.77;;
7383;SDS011;3733;47.994;8.820;2023-04-30T06:33:54;11.33;;;7.20;;
7383;SDS011;3733;47.994;8.820;2023-04-30T06:36:20;12.93;;;8.37;;
7383;SDS011;3733;47.994;8.820;2023-04-30T06:38:46;9.10;;;7.27;;
7383;SDS011;3733;47.994;8.820;2023-04-30T06:41:12;11.50;;;8.20;;
7383;SDS011;3733;47.994;8.820;2023-04-30T06:43:38;10.87;;;7.50;;
7383;SDS011;3733;47.994;8.820;2023-04-30T06:46:03;11.00;;;8.33;;
7383;SDS011;3733;47.994;8.820;2023-04-30T06:48:30;10.83;;;8.30;;
7383;SDS011;3733;47.994;8.820;2023-04-30T06:50:56;11.33;;;7.83;;
7383;SDS011;3733;47.994;8.820;2023-04-30T06:53:22;10.47;;;7.60;;
7383;SDS011;3733;47.994;8.820;2023-04-30T06:55:47;11.50;;;8.00;;
7383;SDS011;3733;47.994;8.820;2023-04-30T06:58:13;10.50;;;7.70;;
7383;SDS011;3733;47.994;8.820;2023-04-30T07:00:39;10.90;;;6.97;;
7383;SDS011;3733;47.994;8.820;2023-04-30T07:03:05;12.13;;;7.53;;
7383;SDS011;3733;47.994;8.820;2023-04-30T07:05:30;9.80;;;7.03;;
7383;SDS011;3733;47.994;8.820;2023-04-30T07:07:57;11.30;;;7.77;;
7383;SDS011;3733;47.994;8.820;2023-04-30T07:10:26;11.80;;;7.80;;
7383;SDS011;3733;47.994;8.820;2023-04-30T07:12:52;11.33;;;7.23;;
7383;SDS011;3733;47.994;8.820;2023-04-30T07:15:17;9.07;;;7.70;;
7383;SDS011;3733;47.994;8.820;2023-04-30T07:17:43;10.30;;;7.10;;
7383;SDS011;3733;47.994;8.820;2023-04-30T07:20:09;9.83;;;7.13;;
7383;SDS011;3733;47.994;8.820;2023-04-30T07:22:35;9.40;;;7.13;;
7383;SDS011;3733;47.994;8.820;2023-04-30T07:25:00;9.37;;;6.73;;
7383;SDS011;3733;47.994;8.820;2023-04-30T07:27:26;9.17;;;6.87;;
7383;SDS011;3733;47.994;8.820;2023-04-30T07:29:52;8.80;;;7.20;;
7383;SDS011;3733;47.994;8.820;2023-04-30T07:32:18;9.70;;;7.10;;
7383;SDS011;3733;47.994;8.820;2023-04-30T07:34:44;11.57;;;7.77;;
7383;SDS011;3733;47.994;8.820;2023-04-30T07:37:10;11.10;;;7.13;;
7383;SDS011;3733;47.994;8.820;2023-04-30T07:39:35;9.00;;;6.50;;
7383;SDS011;3733;47.994;8.820;2023-04-30T07:42:01;11.83;;;6.70;;
7383;SDS011;3733;47.994;8.820;2023-04-30T07:44:28;10.50;;;6.10;;
7383;SDS011;3733;47.994;8.820;2023-04-30T07:46:53;11.63;;;6.10;;
7383;SDS011;3733;47.994;8.820;2023-04-30T07:49:19;7.50;;;5.83;;
7383;SDS011;3733;47.994;8.820;2023-04-30T07:51:45;8.33;;;6.40;;
7383;SDS011;3733;47.994;8.820;2023-04-30T07:54:11;7.00;;;5.60;;
7383;SDS011;3733;47.994;8.820;2023-04-30T07:56:37;6.77;;;5.37;;
7383;SDS011;3733;47.994;8.820;2023-04-30T07:59:03;6.20;;;5.60;;
7383;SDS011;3733;47.994;8.820;2023-04-30T08:01:29;8.60;;;6.70;;
7383;SDS011;3733;47.994;8.820;2023-04-30T08:03:55;7.50;;;6.33;;
7383;SDS011;3733;47.994;8.820;2023-04-30T08:06:20;8.50;;;5.67;;
7383;SDS011;3733;47.994;8.820;2023-04-30T08:08:46;9.00;;;5.60;;
7383;SDS011;3733;47.994;8.820;2023-04-30T08:11:12;8.27;;;5.20;;
7383;SDS011;3733;47.994;8.820;2023-04-30T08:13:39;10.90;;;5.23;;
7383;SDS011;3733;47.994;8.820;2023-04-30T08:16:05;8.27;;;5.93;;
7383;SDS011;3733;47.994;8.820;2023-04-30T08:18:31;6.00;;;5.20;;
7383;SDS011;3733;47.994;8.820;2023-04-30T08:20:57;5.67;;;4.80;;
7383;SDS011;3733;47.994;8.820;2023-04-30T08:23:23;7.20;;;5.60;;
7383;SDS011;3733;47.994;8.820;2023-04-30T08:25:49;7.00;;;5.40;;
7383;SDS011;3733;47.994;8.820;2023-04-30T08:28:15;7.40;;;5.90;;
7383;SDS011;3733;47.994;8.820;2023-04-30T08:30:41;7.60;;;6.70;;
7383;SDS011;3733;47.994;8.820;2023-04-30T08:33:07;6.20;;;4.97;;
7383;SDS011;3733;47.994;8.820;2023-04-30T08:35:33;7.67;;;5.77;;
7383;SDS011;3733;47.994;8.820;2023-04-30T08:37:58;5.87;;;5.23;;
7383;SDS011;3733;47.994;8.820;2023-04-30T08:40:24;7.33;;;5.20;;
7383;SDS011;3733;47.994;8.820;2023-04-30T08:42:53;5.37;;;4.80;;
7383;SDS011;3733;47.994;8.820;2023-04-30T08:45:29;9.60;;;5.70;;
7383;SDS011;3733;47.994;8.820;2023-04-30T08:47:57;5.20;;;4.70;;
7383;SDS011;3733;47.994;8.820;2023-04-30T08:50:24;7.90;;;5.20;;
7383;SDS011;3733;47.994;8.820;2023-04-30T08:52:50;5.93;;;5.17;;
7383;SDS011;3733;47.994;8.820;2023-04-30T08:55:15;6.63;;;4.73;;
7383;SDS011;3733;47.994;8.820;2023-04-30T08:57:41;10.07;;;4.80;;
7383;SDS011;3733;47.994;8.820;2023-04-30T09:00:07;5.60;;;4.87;;
7383;SDS011;3733;47.994;8.820;2023-04-30T09:02:33;6.80;;;5.37;;
7383;SDS011;3733;47.994;8.820;2023-04-30T09:05:02;4.73;;;4.23;;
7383;SDS011;3733;47.994;8.820;2023-04-30T09:07:35;7.10;;;5.30;;
7383;SDS011;3733;47.994;8.820;2023-04-30T09:10:03;5.90;;;5.13;;
7383;SDS011;3733;47.994;8.820;2023-04-30T09:12:29;7.03;;;4.87;;
7383;SDS011;3733;47.994;8.820;2023-04-30T09:15:01;6.70;;;4.67;;
7383;SDS011;3733;47.994;8.820;2023-04-30T09:17:29;5.43;;;4.70;;
7383;SDS011;3733;47.994;8.820;2023-04-30T09:20:16;7.53;;;4.87;;
7383;SDS011;3733;47.994;8.820;2023-04-30T09:22:42;5.43;;;4.13;;
7383;SDS011;3733;47.994;8.820;2023-04-30T09:25:08;4.83;;;4.33;;
7383;SDS011;3733;47.994;8.820;2023-04-30T09:27:34;5.47;;;4.70;;
7383;SDS011;3733;47.994;8.820;2023-04-30T09:29:59;5.30;;;4.10;;
7383;SDS011;3733;47.994;8.820;2023-04-30T09:32:25;5.53;;;4.20;;
7383;SDS011;3733;47.994;8.820;2023-04-30T09:34:51;4.83;;;4.33;;
7383;SDS011;3733;47.994;8.820;2023-04-30T09:37:17;8.70;;;4.10;;
7383;SDS011;3733;47.994;8.820;2023-04-30T09:39:50;4.63;;;4.23;;
7383;SDS011;3733;47.994;8.820;2023-04-30T09:42:18;4.30;;;3.90;;
7383;SDS011;3733;47.994;8.820;2023-04-30T09:44:44;5.47;;;4.20;;
7383;SDS011;3733;47.994;8.820;2023-04-30T09:47:11;5.37;;;4.17;;
7383;SDS011;3733;47.994;8.820;2023-04-30T09:49:39;4.00;;;3.63;;
7383;SDS011;3733;47.994;8.820;2023-04-30T09:52:06;5.63;;;4.03;;
7383;SDS011;3733;47.994;8.820;2023-04-30T09:54:33;4.20;;;3.80;;
7383;SDS011;3733;47.994;8.820;2023-04-30T09:57:00;4.07;;;3.63;;
7383;SDS011;3733;47.994;8.820;2023-04-30T09:59:33;4.30;;;3.70;;
7383;SDS011;3733;47.994;8.820;2023-04-30T10:02:04;5.47;;;4.87;;
7383;SDS011;3733;47.994;8.820;2023-04-30T10:04:32;4.37;;;3.70;;
7383;SDS011;3733;47.994;8.820;2023-04-30T10:07:01;5.10;;;4.00;;
7383;SDS011;3733;47.994;8.820;2023-04-30T10:09:34;7.63;;;4.00;;
7383;SDS011;3733;47.994;8.820;2023-04-30T10:12:55;4.33;;;3.93;;
7383;SDS011;3733;47.994;8.820;2023-04-30T10:15:08;5.27;;;3.50;;
7383;SDS011;3733;47.994;8.820;2023-04-30T10:17:39;3.67;;;3.37;;
7383;SDS011;3733;47.994;8.820;2023-04-30T10:20:06;3.57;;;3.20;;
7383;SDS011;3733;47.994;8.820;2023-04-30T10:22:34;3.77;;;3.30;;
7383;SDS011;3733;47.994;8.820;2023-04-30T10:25:00;4.73;;;3.70;;
7383;SDS011;3733;47.994;8.820;2023-04-30T10:27:27;3.67;;;3.37;;
7383;SDS011;3733;47.994;8.820;2023-04-30T10:29:54;4.30;;;3.50;;
7383;SDS011;3733;47.994;8.820;2023-04-30T10:32:21;4.30;;;3.70;;
7383;SDS011;3733;47.994;8.820;2023-04-30T10:40:19;4.70;;;3.43;;
7383;SDS011;3733;47.994;8.820;2023-04-30T10:42:47;6.20;;;3.80;;
7383;SDS011;3733;47.994;8.820;2023-04-30T10:45:16;3.40;;;3.10;;
7383;SDS011;3733;47.994;8.820;2023-04-30T10:47:44;3.40;;;3.10;;
7383;SDS011;3733;47.994;8.820;2023-04-30T10:50:10;3.60;;;3.30;;
7383;SDS011;3733;47.994;8.820;2023-04-30T10:52:37;2.90;;;2.60;;
7383;SDS011;3733;47.994;8.820;2023-04-30T10:55:06;3.47;;;3.17;;
7383;SDS011;3733;47.994;8.820;2023-04-30T10:57:39;3.80;;;3.00;;
7383;SDS011;3733;47.994;8.820;2023-04-30T11:02:42;3.93;;;3.03;;
7383;SDS011;3733;47.994;8.820;2023-04-30T11:05:12;3.20;;;2.90;;
7383;SDS011;3733;47.994;8.820;2023-04-30T11:07:45;4.50;;;3.80;;
7383;SDS011;3733;47.994;8.820;2023-04-30T11:10:16;3.90;;;2.67;;
7383;SDS011;3733;47.994;8.820;2023-04-30T11:12:46;3.13;;;2.87;;
7383;SDS011;3733;47.994;8.820;2023-04-30T11:15:13;3.03;;;2.63;;
7383;SDS011;3733;47.994;8.820;2023-04-30T11:17:45;3.10;;;2.90;;
7383;SDS011;3733;47.994;8.820;2023-04-30T11:20:12;3.63;;;2.93;;
7383;SDS011;3733;47.994;8.820;2023-04-30T11:22:42;2.70;;;2.40;;
7383;SDS011;3733;47.994;8.820;2023-04-30T11:25:09;9.17;;;3.00;;
7383;SDS011;3733;47.994;8.820;2023-04-30T11:27:42;4.93;;;3.43;;
7383;SDS011;3733;47.994;8.820;2023-04-30T11:30:12;3.33;;;3.00;;
7383;SDS011;3733;47.994;8.820;2023-04-30T11:32:43;3.53;;;2.90;;
7383;SDS011;3733;47.994;8.820;2023-04-30T11:35:12;3.17;;;2.87;;
7383;SDS011;3733;47.994;8.820;2023-04-30T11:37:41;4.17;;;3.20;;
7383;SDS011;3733;47.994;8.820;2023-04-30T11:40:11;3.40;;;3.10;;
7383;SDS011;3733;47.994;8.820;2023-04-30T11:42:38;4.97;;;2.80;;
7383;SDS011;3733;47.994;8.820;2023-04-30T11:45:06;4.93;;;3.33;;
7383;SDS011;3733;47.994;8.820;2023-04-30T11:47:39;4.80;;;2.80;;
7383;SDS011;3733;47.994;8.820;2023-04-30T11:50:08;3.13;;;2.83;;
7383;SDS011;3733;47.994;8.820;2023-04-30T11:52:38;3.27;;;2.97;;
7383;SDS011;3733;47.994;8.820;2023-04-30T11:55:05;5.23;;;3.30;;
7383;SDS011;3733;47.994;8.820;2023-04-30T11:57:41;3.40;;;3.10;;
7383;SDS011;3733;47.994;8.820;2023-04-30T12:00:09;3.00;;;2.80;;
7383;SDS011;3733;47.994;8.820;2023-04-30T12:02:36;3.27;;;3.00;;
7383;SDS011;3733;47.994;8.820;2023-04-30T12:05:03;3.10;;;2.80;;
7383;SDS011;3733;47.994;8.820;2023-04-30T12:07:30;3.30;;;3.00;;
7383;SDS011;3733;47.994;8.820;2023-04-30T12:09:56;5.83;;;3.10;;
7383;SDS011;3733;47.994;8.820;2023-04-30T12:12:27;3.37;;;3.00;;
7383;SDS011;3733;47.994;8.820;2023-04-30T12:14:53;5.67;;;3.43;;
7383;SDS011;3733;47.994;8.820;2023-04-30T12:17:32;5.23;;;3.27;;
7383;SDS011;3733;47.994;8.820;2023-04-30T12:19:58;3.20;;;2.90;;
7383;SDS011;3733;47.994;8.820;2023-04-30T12:22:24;3.40;;;3.10;;
7383;SDS011;3733;47.994;8.820;2023-04-30T12:24:50;7.00;;;3.53;;
7383;SDS011;3733;47.994;8.820;2023-04-30T12:27:16;3.50;;;2.90;;
7383;SDS011;3733;47.994;8.820;2023-04-30T12:29:45;3.07;;;2.77;;
7383;SDS011;3733;47.994;8.820;2023-04-30T12:32:12;3.70;;;3.40;;
7383;SDS011;3733;47.994;8.820;2023-04-30T12:34:43;6.87;;;3.27;;
7383;SDS011;3733;47.994;8.820;2023-04-30T12:37:09;3.93;;;3.43;;
7383;SDS011;3733;47.994;8.820;2023-04-30T12:39:34;3.50;;;3.20;;
7383;SDS011;3733;47.994;8.820;2023-04-30T12:42:02;3.90;;;3.40;;
7383;SDS011;3733;47.994;8.820;2023-04-30T12:44:28;5.20;;;3.67;;
7383;SDS011;3733;47.994;8.820;2023-04-30T12:46:55;3.57;;;3.10;;
7383;SDS011;3733;47.994;8.820;2023-04-30T12:49:22;5.60;;;2.90;;
7383;SDS011;3733;47.994;8.820;2023-04-30T12:51:48;3.70;;;3.30;;
7383;SDS011;3733;47.994;8.820;2023-04-30T12:54:14;3.93;;;3.53;;
7383;SDS011;3733;47.994;8.820;2023-04-30T12:56:58;6.43;;;3.30;;
7383;SDS011;3733;47.994;8.820;2023-04-30T12:59:25;4.20;;;3.10;;
7383;SDS011;3733;47.994;8.820;2023-04-30T13:01:51;3.50;;;2.80;;
7383;SDS011;3733;47.994;8.820;2023-04-30T13:04:18;3.33;;;3.03;;
7383;SDS011;3733;47.994;8.820;2023-04-30T13:06:44;3.00;;;2.67;;
7383;SDS011;3733;47.994;8.820;2023-04-30T13:09:10;4.93;;;2.70;;
7383;SDS011;3733;47.994;8.820;2023-04-30T13:11:36;3.83;;;2.80;;
7383;SDS011;3733;47.994;8.820;2023-04-30T13:14:02;3.80;;;3.30;;
7383;SDS011;3733;47.994;8.820;2023-04-30T13:16:28;3.80;;;3.40;;
7383;SDS011;3733;47.994;8.820;2023-04-30T13:18:54;4.27;;;3.90;;
7383;SDS011;3733;47.994;8.820;2023-04-30T13:21:21;4.07;;;3.50;;
7383;SDS011;3733;47.994;8.820;2023-04-30T13:23:47;2.90;;;2.70;;
7383;SDS011;3733;47.994;8.820;2023-04-30T13:26:13;5.03;;;3.13;;
7383;SDS011;3733;47.994;8.820;2023-04-30T13:28:38;3.40;;;3.10;;
7383;SDS011;3733;47.994;8.820;2023-04-30T13:31:04;12.07;;;3.20;;
7383;SDS011;3733;47.994;8.820;2023-04-30T13:33:30;4.60;;;2.97;;
7383;SDS011;3733;47.994;8.820;2023-04-30T13:35:56;4.00;;;3.67;;
7383;SDS011;3733;47.994;8.820;2023-04-30T13:38:21;5.50;;;3.90;;
7383;SDS011;3733;47.994;8.820;2023-04-30T13:40:47;5.80;;;3.80;;
7383;SDS011;3733;47.994;8.820;2023-04-30T13:43:12;3.40;;;3.10;;
7383;SDS011;3733;47.994;8.820;2023-04-30T13:45:38;3.63;;;3.27;;
7383;SDS011;3733;47.994;8.820;2023-04-30T13:48:04;3.20;;;2.90;;
7383;SDS011;3733;47.994;8.820;2023-04-30T13:50:29;4.53;;;3.57;;
7383;SDS011;3733;47.994;8.820;2023-04-30T13:52:55;3.47;;;3.27;;
7383;SDS011;3733;47.994;8.820;2023-04-30T13:55:23;7.93;;;3.50;;
7383;SDS011;3733;47.994;8.820;2023-04-30T13:57:49;7.90;;;3.23;;
7383;SDS011;3733;47.994;8.820;2023-04-30T14:00:15;3.70;;;2.93;;
7383;SDS011;3733;47.994;8.820;2023-04-30T14:02:41;3.63;;;3.00;;
7383;SDS011;3733;47.994;8.820;2023-04-30T14:05:06;3.17;;;2.87;;
7383;SDS011;3733;47.994;8.820;2023-04-30T14:07:32;3.20;;;3.00;;
7383;SDS011;3733;47.994;8.820;2023-04-30T14:09:58;4.10;;;3.70;;
7383;SDS011;3733;47.994;8.820;2023-04-30T14:12:24;3.93;;;3.20;;
7383;SDS011;3733;47.994;8.820;2023-04-30T14:14:49;5.80;;;3.53;;
7383;SDS011;3733;47.994;8.820;2023-04-30T14:17:15;3.03;;;2.83;;
7383;SDS011;3733;47.994;8.820;2023-04-30T14:19:40;4.20;;;2.90;;
7383;SDS011;3733;47.994;8.820;2023-04-30T14:22:06;3.00;;;2.70;;
7383;SDS011;3733;47.994;8.820;2023-04-30T14:24:32;3.70;;;3.03;;
7383;SDS011;3733;47.994;8.820;2023-04-30T14:26:59;3.20;;;2.90;;
7383;SDS011;3733;47.994;8.820;2023-04-30T14:29:25;3.40;;;3.10;;
7383;SDS011;3733;47.994;8.820;2023-04-30T14:31:51;3.30;;;3.00;;
7383;SDS011;3733;47.994;8.820;2023-04-30T14:34:16;3.00;;;2.67;;
7383;SDS011;3733;47.994;8.820;2023-04-30T14:36:43;3.43;;;3.13;;
7383;SDS011;3733;47.994;8.820;2023-04-30T14:39:09;4.20;;;3.20;;
7383;SDS011;3733;47.994;8.820;2023-04-30T14:41:35;3.50;;;3.20;;
7383;SDS011;3733;47.994;8.820;2023-04-30T14:44:01;3.33;;;2.70;;
7383;SDS011;3733;47.994;8.820;2023-04-30T14:46:28;3.30;;;3.00;;
7383;SDS011;3733;47.994;8.820;2023-04-30T14:48:54;4.10;;;3.43;;
7383;SDS011;3733;47.994;8.820;2023-04-30T14:51:19;3.17;;;2.80;;
7383;SDS011;3733;47.994;8.820;2023-04-30T14:53:45;3.23;;;2.93;;
7383;SDS011;3733;47.994;8.820;2023-04-30T14:56:10;3.07;;;2.83;;
7383;SDS011;3733;47.994;8.820;2023-04-30T14:58:36;3.00;;;2.70;;
7383;SDS011;3733;47.994;8.820;2023-04-30T15:01:02;4.33;;;2.77;;
7383;SDS011;3733;47.994;8.820;2023-04-30T15:03:28;3.43;;;2.80;;
7383;SDS011;3733;47.994;8.820;2023-04-30T15:05:54;2.97;;;2.67;;
7383;SDS011;3733;47.994;8.820;2023-04-30T15:08:20;4.23;;;2.90;;
7383;SDS011;3733;47.994;8.820;2023-04-30T15:10:46;11.13;;;2.70;;
7383;SDS011;3733;47.994;8.820;2023-04-30T15:13:11;2.73;;;2.53;;
7383;SDS011;3733;47.994;8.820;2023-04-30T15:15:38;2.77;;;2.50;;
7383;SDS011;3733;47.994;8.820;2023-04-30T15:18:04;3.17;;;2.50;;
7383;SDS011;3733;47.994;8.820;2023-04-30T15:20:31;3.23;;;2.77;;
7383;SDS011;3733;47.994;8.820;2023-04-30T15:22:56;2.97;;;2.77;;
7383;SDS011;3733;47.994;8.820;2023-04-30T15:25:23;2.90;;;2.60;;
7383;SDS011;3733;47.994;8.820;2023-04-30T15:27:49;4.13;;;3.03;;